sensor_id;sensor_type;location;lat;lon;timestamp;P1;durP1;ratioP1;P2;durP2;ratioP2
68938;SDS011;59064;45.294;11.816;2022-12-17T00:00:09;42.40;;;19.80;;
68938;SDS011;59064;45.294;11.816;2022-12-17T00:02:57;43.90;;;19.80;;
68938;SDS011;59064;45.294;11.816;2022-12-17T00:05:42;44.40;;;21.40;;
68938;SDS011;59064;45.294;11.816;2022-12-17T00:08:26;45.70;;;21.40;;
68938;SDS011;59064;45.294;11.816;2022-12-17T00:11:24;36.70;;;18.30;;
68938;SDS011;59064;45.294;11.816;2022-12-17T00:14:08;36.70;;;19.40;;
68938;SDS011;59064;45.294;11.816;2022-12-17T00:16:53;40.50;;;21.00;;
68938;SDS011;59064;45.294;11.816;2022-12-17T00:19:37;37.70;;;18.80;;
68938;SDS011;59064;45.294;11.816;2022-12-17T00:22:21;38.30;;;19.10;;
68938;SDS011;59064;45.294;11.816;2022-12-17T00:25:05;41.20;;;20.60;;
68938;SDS011;59064;45.294;11.816;2022-12-17T00:27:50;41.50;;;20.10;;
68938;SDS011;59064;45.294;11.816;2022-12-17T00:30:34;39.50;;;20.00;;
68938;SDS011;59064;45.294;11.816;2022-12-17T00:33:18;42.00;;;21.70;;
68938;SDS011;59064;45.294;11.816;2022-12-17T00:36:02;45.60;;;22.60;;
68938;SDS011;59064;45.294;11.816;2022-12-17T00:38:47;32.70;;;17.20;;
68938;SDS011;59064;45.294;11.816;2022-12-17T00:41:31;44.30;;;21.40;;
68938;SDS011;59064;45.294;11.816;2022-12-17T00:44:15;41.20;;;20.10;;
68938;SDS011;59064;45.294;11.816;2022-12-17T00:47:00;42.00;;;22.10;;
68938;SDS011;59064;45.294;11.816;2022-12-17T00:49:44;35.20;;;17.80;;
68938;SDS011;59064;45.294;11.816;2022-12-17T00:52:28;37.50;;;19.20;;
68938;SDS011;59064;45.294;11.816;2022-12-17T00:55:12;41.30;;;20.80;;
68938;SDS011;59064;45.294;11.816;2022-12-17T00:57:57;39.80;;;20.30;;
68938;SDS011;59064;45.294;11.816;2022-12-17T01:00:41;38.50;;;19.50;;
68938;SDS011;59064;45.294;11.816;2022-12-17T01:03:26;33.70;;;17.50;;
68938;SDS011;59064;45.294;11.816;2022-12-17T01:06:10;36.70;;;18.30;;
68938;SDS011;59064;45.294;11.816;2022-12-17T01:08:55;36.60;;;18.90;;
68938;SDS011;59064;45.294;11.816;2022-12-17T01:11:39;40.60;;;20.30;;
68938;SDS011;59064;45.294;11.816;2022-12-17T01:14:24;42.60;;;20.70;;
68938;SDS011;59064;45.294;11.816;2022-12-17T01:17:09;39.30;;;18.40;;
68938;SDS011;59064;45.294;11.816;2022-12-17T01:19:54;40.00;;;18.00;;
68938;SDS011;59064;45.294;11.816;2022-12-17T01:22:39;36.30;;;18.10;;
68938;SDS011;59064;45.294;11.816;2022-12-17T01:25:24;38.60;;;19.10;;
68938;SDS011;59064;45.294;11.816;2022-12-17T01:28:08;37.10;;;19.60;;
68938;SDS011;59064;45.294;11.816;2022-12-17T01:30:55;34.90;;;18.50;;
68938;SDS011;59064;45.294;11.816;2022-12-17T01:33:39;38.30;;;19.50;;
68938;SDS011;59064;45.294;11.816;2022-12-17T01:36:24;42.00;;;19.90;;
68938;SDS011;59064;45.294;11.816;2022-12-17T01:39:08;37.80;;;17.80;;
68938;SDS011;59064;45.294;11.816;2022-12-17T01:41:52;43.30;;;19.70;;
68938;SDS011;59064;45.294;11.816;2022-12-17T01:47:36;38.10;;;17.50;;
68938;SDS011;59064;45.294;11.816;2022-12-17T01:50:28;41.20;;;19.60;;
68938;SDS011;59064;45.294;11.816;2022-12-17T01:53:16;37.40;;;18.40;;
68938;SDS011;59064;45.294;11.816;2022-12-17T01:56:04;42.90;;;20.60;;
68938;SDS011;59064;45.294;11.816;2022-12-17T01:58:49;42.60;;;19.40;;
68938;SDS011;59064;45.294;11.816;2022-12-17T02:01:34;44.00;;;20.70;;
68938;SDS011;59064;45.294;11.816;2022-12-17T02:04:18;36.80;;;18.00;;
68938;SDS011;59064;45.294;11.816;2022-12-17T02:07:11;40.80;;;19.70;;
68938;SDS011;59064;45.294;11.816;2022-12-17T02:16:19;43.10;;;18.30;;
68938;SDS011;59064;45.294;11.816;2022-12-17T02:21:57;43.60;;;20.50;;
68938;SDS011;59064;45.294;11.816;2022-12-17T02:24:57;37.10;;;19.40;;
68938;SDS011;59064;45.294;11.816;2022-12-17T02:27:47;40.90;;;18.90;;
68938;SDS011;59064;45.294;11.816;2022-12-17T02:30:32;41.20;;;21.40;;
68938;SDS011;59064;45.294;11.816;2022-12-17T02:33:17;39.10;;;19.40;;
68938;SDS011;59064;45.294;11.816;2022-12-17T02:36:03;38.90;;;19.50;;
68938;SDS011;59064;45.294;11.816;2022-12-17T02:38:49;33.60;;;15.40;;
68938;SDS011;59064;45.294;11.816;2022-12-17T02:41:36;35.70;;;15.50;;
68938;SDS011;59064;45.294;11.816;2022-12-17T02:44:30;30.90;;;15.40;;
68938;SDS011;59064;45.294;11.816;2022-12-17T02:47:17;44.00;;;21.10;;
68938;SDS011;59064;45.294;11.816;2022-12-17T02:50:05;49.40;;;22.30;;
68938;SDS011;59064;45.294;11.816;2022-12-17T02:52:50;48.40;;;23.20;;
68938;SDS011;59064;45.294;11.816;2022-12-17T02:55:35;46.00;;;21.30;;
68938;SDS011;59064;45.294;11.816;2022-12-17T02:58:19;49.60;;;23.30;;
68938;SDS011;59064;45.294;11.816;2022-12-17T03:01:04;40.80;;;19.70;;
68938;SDS011;59064;45.294;11.816;2022-12-17T03:03:49;36.70;;;17.20;;
68938;SDS011;59064;45.294;11.816;2022-12-17T03:06:33;46.90;;;23.20;;
68938;SDS011;59064;45.294;11.816;2022-12-17T03:09:17;43.60;;;22.50;;
68938;SDS011;59064;45.294;11.816;2022-12-17T03:12:02;45.00;;;21.20;;
68938;SDS011;59064;45.294;11.816;2022-12-17T03:14:46;45.40;;;21.80;;
68938;SDS011;59064;45.294;11.816;2022-12-17T03:17:30;43.00;;;21.60;;
68938;SDS011;59064;45.294;11.816;2022-12-17T03:20:15;42.60;;;22.40;;
68938;SDS011;59064;45.294;11.816;2022-12-17T03:23:05;43.00;;;21.50;;
68938;SDS011;59064;45.294;11.816;2022-12-17T03:25:51;42.00;;;21.50;;
68938;SDS011;59064;45.294;11.816;2022-12-17T03:28:35;43.70;;;22.80;;
68938;SDS011;59064;45.294;11.816;2022-12-17T03:31:20;41.10;;;22.30;;
68938;SDS011;59064;45.294;11.816;2022-12-17T03:34:05;37.70;;;20.60;;
68938;SDS011;59064;45.294;11.816;2022-12-17T03:36:50;42.20;;;21.40;;
68938;SDS011;59064;45.294;11.816;2022-12-17T03:39:35;42.10;;;22.80;;
68938;SDS011;59064;45.294;11.816;2022-12-17T03:42:19;39.00;;;22.10;;
68938;SDS011;59064;45.294;11.816;2022-12-17T03:45:03;37.50;;;20.30;;
68938;SDS011;59064;45.294;11.816;2022-12-17T03:47:48;36.40;;;19.60;;
68938;SDS011;59064;45.294;11.816;2022-12-17T03:50:32;30.70;;;17.40;;
68938;SDS011;59064;45.294;11.816;2022-12-17T03:53:16;35.00;;;17.90;;
68938;SDS011;59064;45.294;11.816;2022-12-17T03:56:00;35.00;;;19.80;;
68938;SDS011;59064;45.294;11.816;2022-12-17T03:58:44;35.50;;;20.20;;
68938;SDS011;59064;45.294;11.816;2022-12-17T04:01:28;38.40;;;22.40;;
68938;SDS011;59064;45.294;11.816;2022-12-17T04:04:13;39.80;;;21.90;;
68938;SDS011;59064;45.294;11.816;2022-12-17T04:06:57;34.50;;;20.00;;
68938;SDS011;59064;45.294;11.816;2022-12-17T04:09:41;34.60;;;19.40;;
68938;SDS011;59064;45.294;11.816;2022-12-17T04:12:25;39.10;;;21.50;;
68938;SDS011;59064;45.294;11.816;2022-12-17T04:15:10;34.10;;;18.90;;
68938;SDS011;59064;45.294;11.816;2022-12-17T04:17:54;33.90;;;18.70;;
68938;SDS011;59064;45.294;11.816;2022-12-17T04:20:38;36.00;;;19.90;;
68938;SDS011;59064;45.294;11.816;2022-12-17T04:23:22;37.00;;;21.40;;
68938;SDS011;59064;45.294;11.816;2022-12-17T04:26:06;34.10;;;18.90;;
68938;SDS011;59064;45.294;11.816;2022-12-17T04:28:51;35.80;;;19.30;;
68938;SDS011;59064;45.294;11.816;2022-12-17T04:31:35;37.10;;;19.60;;
68938;SDS011;59064;45.294;11.816;2022-12-17T04:34:19;38.00;;;21.70;;
68938;SDS011;59064;45.294;11.816;2022-12-17T04:37:03;34.50;;;20.00;;
68938;SDS011;59064;45.294;11.816;2022-12-17T04:39:47;32.20;;;17.30;;
68938;SDS011;59064;45.294;11.816;2022-12-17T04:42:31;35.40;;;18.40;;
68938;SDS011;59064;45.294;11.816;2022-12-17T04:45:15;40.40;;;21.30;;
68938;SDS011;59064;45.294;11.816;2022-12-17T04:48:03;35.80;;;20.50;;
68938;SDS011;59064;45.294;11.816;2022-12-17T04:50:49;36.90;;;19.70;;
68938;SDS011;59064;45.294;11.816;2022-12-17T04:53:34;36.90;;;21.60;;
68938;SDS011;59064;45.294;11.816;2022-12-17T04:56:19;33.80;;;18.70;;
68938;SDS011;59064;45.294;11.816;2022-12-17T04:59:04;37.40;;;19.60;;
68938;SDS011;59064;45.294;11.816;2022-12-17T05:01:48;40.80;;;22.20;;
68938;SDS011;59064;45.294;11.816;2022-12-17T05:04:33;38.90;;;21.60;;
68938;SDS011;59064;45.294;11.816;2022-12-17T05:07:17;39.00;;;22.40;;
68938;SDS011;59064;45.294;11.816;2022-12-17T05:10:02;43.20;;;23.80;;
68938;SDS011;59064;45.294;11.816;2022-12-17T05:12:47;41.20;;;23.00;;
68938;SDS011;59064;45.294;11.816;2022-12-17T05:15:31;38.30;;;21.50;;
68938;SDS011;59064;45.294;11.816;2022-12-17T05:18:15;44.20;;;22.60;;
68938;SDS011;59064;45.294;11.816;2022-12-17T05:20:59;38.70;;;22.40;;
68938;SDS011;59064;45.294;11.816;2022-12-17T05:23:43;42.90;;;23.10;;
68938;SDS011;59064;45.294;11.816;2022-12-17T05:26:28;36.80;;;22.00;;
68938;SDS011;59064;45.294;11.816;2022-12-17T05:29:12;43.10;;;24.00;;
68938;SDS011;59064;45.294;11.816;2022-12-17T05:31:57;40.50;;;23.30;;
68938;SDS011;59064;45.294;11.816;2022-12-17T05:34:42;42.40;;;22.50;;
68938;SDS011;59064;45.294;11.816;2022-12-17T05:37:26;37.80;;;21.50;;
68938;SDS011;59064;45.294;11.816;2022-12-17T05:40:10;41.70;;;23.20;;
68938;SDS011;59064;45.294;11.816;2022-12-17T05:42:59;36.80;;;21.70;;
68938;SDS011;59064;45.294;11.816;2022-12-17T05:45:45;35.20;;;20.50;;
68938;SDS011;59064;45.294;11.816;2022-12-17T05:48:31;37.20;;;22.70;;
68938;SDS011;59064;45.294;11.816;2022-12-17T05:51:15;34.80;;;20.30;;
68938;SDS011;59064;45.294;11.816;2022-12-17T05:54:00;31.60;;;18.10;;
68938;SDS011;59064;45.294;11.816;2022-12-17T05:56:44;38.40;;;22.00;;
68938;SDS011;59064;45.294;11.816;2022-12-17T05:59:28;40.60;;;21.60;;
68938;SDS011;59064;45.294;11.816;2022-12-17T06:02:13;39.50;;;22.40;;
68938;SDS011;59064;45.294;11.816;2022-12-17T06:04:58;34.20;;;20.20;;
68938;SDS011;59064;45.294;11.816;2022-12-17T06:07:42;32.70;;;18.00;;
68938;SDS011;59064;45.294;11.816;2022-12-17T06:10:26;39.70;;;21.40;;
68938;SDS011;59064;45.294;11.816;2022-12-17T06:13:10;37.90;;;22.20;;
68938;SDS011;59064;45.294;11.816;2022-12-17T06:15:54;33.10;;;20.00;;
68938;SDS011;59064;45.294;11.816;2022-12-17T06:18:39;35.30;;;21.60;;
68938;SDS011;59064;45.294;11.816;2022-12-17T06:21:24;36.40;;;21.20;;
68938;SDS011;59064;45.294;11.816;2022-12-17T06:24:08;32.30;;;20.00;;
68938;SDS011;59064;45.294;11.816;2022-12-17T06:26:53;34.30;;;19.70;;
68938;SDS011;59064;45.294;11.816;2022-12-17T06:29:37;35.20;;;20.80;;
68938;SDS011;59064;45.294;11.816;2022-12-17T06:32:26;39.40;;;22.30;;
68938;SDS011;59064;45.294;11.816;2022-12-17T06:35:11;40.50;;;23.50;;
68938;SDS011;59064;45.294;11.816;2022-12-17T06:37:59;33.40;;;18.80;;
68938;SDS011;59064;45.294;11.816;2022-12-17T06:40:44;41.50;;;24.30;;
68938;SDS011;59064;45.294;11.816;2022-12-17T06:43:29;38.60;;;24.20;;
68938;SDS011;59064;45.294;11.816;2022-12-17T06:46:13;34.90;;;22.90;;
68938;SDS011;59064;45.294;11.816;2022-12-17T06:48:57;34.40;;;19.70;;
68938;SDS011;59064;45.294;11.816;2022-12-17T06:51:41;30.50;;;19.30;;
68938;SDS011;59064;45.294;11.816;2022-12-17T06:54:26;34.60;;;19.30;;
68938;SDS011;59064;45.294;11.816;2022-12-17T06:57:10;30.90;;;18.60;;
68938;SDS011;59064;45.294;11.816;2022-12-17T06:59:54;33.20;;;19.20;;
68938;SDS011;59064;45.294;11.816;2022-12-17T07:02:38;37.20;;;21.30;;
68938;SDS011;59064;45.294;11.816;2022-12-17T07:05:22;36.00;;;22.30;;
68938;SDS011;59064;45.294;11.816;2022-12-17T07:08:06;34.20;;;20.70;;
68938;SDS011;59064;45.294;11.816;2022-12-17T07:10:51;35.90;;;20.90;;
68938;SDS011;59064;45.294;11.816;2022-12-17T07:13:35;37.90;;;21.40;;
68938;SDS011;59064;45.294;11.816;2022-12-17T07:16:19;38.90;;;21.70;;
68938;SDS011;59064;45.294;11.816;2022-12-17T07:19:04;36.20;;;22.00;;
68938;SDS011;59064;45.294;11.816;2022-12-17T07:21:48;36.80;;;22.50;;
68938;SDS011;59064;45.294;11.816;2022-12-17T07:24:32;36.80;;;23.90;;
68938;SDS011;59064;45.294;11.816;2022-12-17T07:27:16;36.80;;;23.30;;
68938;SDS011;59064;45.294;11.816;2022-12-17T07:30:00;33.60;;;21.80;;
68938;SDS011;59064;45.294;11.816;2022-12-17T07:32:44;34.30;;;21.20;;
68938;SDS011;59064;45.294;11.816;2022-12-17T07:35:28;35.80;;;21.90;;
68938;SDS011;59064;45.294;11.816;2022-12-17T07:38:13;53.10;;;31.10;;
68938;SDS011;59064;45.294;11.816;2022-12-17T07:41:00;37.90;;;24.20;;
68938;SDS011;59064;45.294;11.816;2022-12-17T07:43:44;41.80;;;24.80;;
68938;SDS011;59064;45.294;11.816;2022-12-17T07:46:28;37.50;;;24.20;;
68938;SDS011;59064;45.294;11.816;2022-12-17T07:49:12;38.60;;;23.80;;
68938;SDS011;59064;45.294;11.816;2022-12-17T07:51:56;42.30;;;24.60;;
68938;SDS011;59064;45.294;11.816;2022-12-17T07:54:40;42.40;;;23.90;;
68938;SDS011;59064;45.294;11.816;2022-12-17T07:57:24;44.50;;;22.10;;
68938;SDS011;59064;45.294;11.816;2022-12-17T08:00:09;43.00;;;23.40;;
68938;SDS011;59064;45.294;11.816;2022-12-17T08:02:57;42.90;;;21.70;;
68938;SDS011;59064;45.294;11.816;2022-12-17T08:05:43;35.00;;;19.10;;
68938;SDS011;59064;45.294;11.816;2022-12-17T08:08:27;41.10;;;22.40;;
68938;SDS011;59064;45.294;11.816;2022-12-17T08:11:11;44.90;;;23.60;;
68938;SDS011;59064;45.294;11.816;2022-12-17T08:13:55;46.40;;;23.70;;
68938;SDS011;59064;45.294;11.816;2022-12-17T08:16:39;44.40;;;23.70;;
68938;SDS011;59064;45.294;11.816;2022-12-17T08:19:24;39.70;;;22.70;;
68938;SDS011;59064;45.294;11.816;2022-12-17T08:22:08;43.90;;;25.10;;
68938;SDS011;59064;45.294;11.816;2022-12-17T08:24:52;39.60;;;22.30;;
68938;SDS011;59064;45.294;11.816;2022-12-17T08:27:36;38.10;;;22.70;;
68938;SDS011;59064;45.294;11.816;2022-12-17T08:30:20;39.70;;;22.50;;
68938;SDS011;59064;45.294;11.816;2022-12-17T08:33:04;39.80;;;22.40;;
68938;SDS011;59064;45.294;11.816;2022-12-17T08:35:51;40.90;;;22.80;;
68938;SDS011;59064;45.294;11.816;2022-12-17T08:38:36;38.60;;;22.20;;
68938;SDS011;59064;45.294;11.816;2022-12-17T08:41:20;36.20;;;20.70;;
68938;SDS011;59064;45.294;11.816;2022-12-17T08:44:12;31.50;;;18.70;;
68938;SDS011;59064;45.294;11.816;2022-12-17T08:46:56;38.10;;;19.70;;
68938;SDS011;59064;45.294;11.816;2022-12-17T08:49:40;39.40;;;22.20;;
68938;SDS011;59064;45.294;11.816;2022-12-17T08:52:24;37.30;;;21.00;;
68938;SDS011;59064;45.294;11.816;2022-12-17T08:55:08;41.40;;;25.10;;
68938;SDS011;59064;45.294;11.816;2022-12-17T08:57:53;40.80;;;24.60;;
68938;SDS011;59064;45.294;11.816;2022-12-17T09:00:39;47.60;;;23.70;;
68938;SDS011;59064;45.294;11.816;2022-12-17T09:03:24;44.70;;;25.70;;
68938;SDS011;59064;45.294;11.816;2022-12-17T09:06:08;38.50;;;22.00;;
68938;SDS011;59064;45.294;11.816;2022-12-17T09:08:52;42.40;;;24.90;;
68938;SDS011;59064;45.294;11.816;2022-12-17T09:11:37;47.40;;;27.60;;
68938;SDS011;59064;45.294;11.816;2022-12-17T09:14:21;40.00;;;24.50;;
68938;SDS011;59064;45.294;11.816;2022-12-17T09:17:05;42.80;;;26.00;;
68938;SDS011;59064;45.294;11.816;2022-12-17T09:19:50;46.40;;;26.50;;
68938;SDS011;59064;45.294;11.816;2022-12-17T09:22:34;40.40;;;26.40;;
68938;SDS011;59064;45.294;11.816;2022-12-17T09:25:19;38.80;;;23.00;;
68938;SDS011;59064;45.294;11.816;2022-12-17T09:28:03;44.00;;;24.40;;
68938;SDS011;59064;45.294;11.816;2022-12-17T09:30:47;44.20;;;25.10;;
68938;SDS011;59064;45.294;11.816;2022-12-17T09:33:31;43.40;;;24.00;;
68938;SDS011;59064;45.294;11.816;2022-12-17T09:36:16;43.30;;;24.70;;
68938;SDS011;59064;45.294;11.816;2022-12-17T09:39:00;44.00;;;23.00;;
68938;SDS011;59064;45.294;11.816;2022-12-17T09:44:55;44.80;;;23.90;;
68938;SDS011;59064;45.294;11.816;2022-12-17T09:48:15;42.90;;;23.80;;
68938;SDS011;59064;45.294;11.816;2022-12-17T09:51:09;46.50;;;26.30;;
68938;SDS011;59064;45.294;11.816;2022-12-17T09:54:04;45.80;;;25.70;;
68938;SDS011;59064;45.294;11.816;2022-12-17T09:56:53;41.50;;;23.90;;
68938;SDS011;59064;45.294;11.816;2022-12-17T09:59:44;43.40;;;24.30;;
68938;SDS011;59064;45.294;11.816;2022-12-17T10:02:45;43.40;;;23.20;;
68938;SDS011;59064;45.294;11.816;2022-12-17T10:05:43;47.40;;;25.60;;
68938;SDS011;59064;45.294;11.816;2022-12-17T10:08:29;45.80;;;25.40;;
68938;SDS011;59064;45.294;11.816;2022-12-17T10:11:18;46.70;;;25.70;;
68938;SDS011;59064;45.294;11.816;2022-12-17T10:14:15;46.80;;;25.00;;
68938;SDS011;59064;45.294;11.816;2022-12-17T10:16:59;50.40;;;27.50;;
68938;SDS011;59064;45.294;11.816;2022-12-17T10:19:44;44.00;;;22.70;;
68938;SDS011;59064;45.294;11.816;2022-12-17T10:22:40;47.20;;;25.10;;
68938;SDS011;59064;45.294;11.816;2022-12-17T10:25:28;47.90;;;27.00;;
68938;SDS011;59064;45.294;11.816;2022-12-17T10:28:14;44.10;;;21.30;;
68938;SDS011;59064;45.294;11.816;2022-12-17T10:31:09;43.50;;;24.00;;
68938;SDS011;59064;45.294;11.816;2022-12-17T10:34:06;38.90;;;23.10;;
68938;SDS011;59064;45.294;11.816;2022-12-17T10:36:56;40.80;;;23.50;;
68938;SDS011;59064;45.294;11.816;2022-12-17T10:39:41;38.10;;;21.20;;
68938;SDS011;59064;45.294;11.816;2022-12-17T10:42:27;37.90;;;21.30;;
68938;SDS011;59064;45.294;11.816;2022-12-17T10:45:19;33.80;;;19.50;;
68938;SDS011;59064;45.294;11.816;2022-12-17T10:48:28;30.30;;;18.10;;
68938;SDS011;59064;45.294;11.816;2022-12-17T10:54:25;29.50;;;17.10;;
68938;SDS011;59064;45.294;11.816;2022-12-17T10:57:25;29.50;;;17.50;;
68938;SDS011;59064;45.294;11.816;2022-12-17T11:03:01;19.20;;;12.50;;
68938;SDS011;59064;45.294;11.816;2022-12-17T11:05:47;16.40;;;10.70;;
68938;SDS011;59064;45.294;11.816;2022-12-17T11:08:33;10.70;;;7.50;;
68938;SDS011;59064;45.294;11.816;2022-12-17T11:11:17;9.80;;;7.10;;
68938;SDS011;59064;45.294;11.816;2022-12-17T11:14:02;9.90;;;7.20;;
68938;SDS011;59064;45.294;11.816;2022-12-17T11:16:48;14.20;;;8.90;;
68938;SDS011;59064;45.294;11.816;2022-12-17T11:25:39;9.10;;;6.60;;
68938;SDS011;59064;45.294;11.816;2022-12-17T11:28:36;13.50;;;9.20;;
68938;SDS011;59064;45.294;11.816;2022-12-17T11:34:14;10.40;;;7.70;;
68938;SDS011;59064;45.294;11.816;2022-12-17T11:37:19;13.40;;;9.90;;
68938;SDS011;59064;45.294;11.816;2022-12-17T11:40:20;13.00;;;9.60;;
68938;SDS011;59064;45.294;11.816;2022-12-17T11:59:02;12.40;;;10.00;;
68938;SDS011;59064;45.294;11.816;2022-12-17T12:02:19;11.90;;;10.10;;
68938;SDS011;59064;45.294;11.816;2022-12-17T12:05:31;14.20;;;10.50;;
68938;SDS011;59064;45.294;11.816;2022-12-17T12:08:34;12.70;;;10.00;;
68938;SDS011;59064;45.294;11.816;2022-12-17T12:11:30;12.60;;;9.70;;
68938;SDS011;59064;45.294;11.816;2022-12-17T12:27:04;24.10;;;13.10;;
68938;SDS011;59064;45.294;11.816;2022-12-17T12:30:20;12.00;;;8.90;;
68938;SDS011;59064;45.294;11.816;2022-12-17T12:36:05;10.80;;;8.10;;
68938;SDS011;59064;45.294;11.816;2022-12-17T12:38:53;9.30;;;6.30;;
68938;SDS011;59064;45.294;11.816;2022-12-17T12:41:50;12.70;;;9.30;;
68938;SDS011;59064;45.294;11.816;2022-12-17T12:44:43;6.80;;;4.40;;
68938;SDS011;59064;45.294;11.816;2022-12-17T12:50:33;8.00;;;6.00;;
68938;SDS011;59064;45.294;11.816;2022-12-17T12:53:59;8.90;;;6.50;;
68938;SDS011;59064;45.294;11.816;2022-12-17T12:56:44;7.60;;;5.50;;
68938;SDS011;59064;45.294;11.816;2022-12-17T12:59:37;10.40;;;6.80;;
68938;SDS011;59064;45.294;11.816;2022-12-17T13:02:26;9.40;;;7.00;;
68938;SDS011;59064;45.294;11.816;2022-12-17T13:05:27;7.50;;;5.70;;
68938;SDS011;59064;45.294;11.816;2022-12-17T13:10:35;7.20;;;5.80;;
68938;SDS011;59064;45.294;11.816;2022-12-17T13:16:00;9.20;;;6.40;;
68938;SDS011;59064;45.294;11.816;2022-12-17T13:19:00;6.60;;;2.90;;
68938;SDS011;59064;45.294;11.816;2022-12-17T13:21:27;5.30;;;2.30;;
68938;SDS011;59064;45.294;11.816;2022-12-17T13:23:54;5.60;;;3.00;;
68938;SDS011;59064;45.294;11.816;2022-12-17T13:31:24;5.50;;;3.60;;
68938;SDS011;59064;45.294;11.816;2022-12-17T13:39:23;7.60;;;3.00;;
68938;SDS011;59064;45.294;11.816;2022-12-17T13:41:52;5.10;;;2.70;;
68938;SDS011;59064;45.294;11.816;2022-12-17T13:44:23;5.60;;;3.00;;
68938;SDS011;59064;45.294;11.816;2022-12-17T13:46:52;4.80;;;2.40;;
68938;SDS011;59064;45.294;11.816;2022-12-17T13:49:25;3.90;;;1.90;;
68938;SDS011;59064;45.294;11.816;2022-12-17T13:52:01;3.80;;;1.80;;
68938;SDS011;59064;45.294;11.816;2022-12-17T13:54:41;5.10;;;2.00;;
68938;SDS011;59064;45.294;11.816;2022-12-17T13:59:51;4.10;;;2.40;;
68938;SDS011;59064;45.294;11.816;2022-12-17T14:02:31;5.30;;;2.70;;
68938;SDS011;59064;45.294;11.816;2022-12-17T14:04:59;4.20;;;2.00;;
68938;SDS011;59064;45.294;11.816;2022-12-17T14:07:31;5.50;;;1.60;;
68938;SDS011;59064;45.294;11.816;2022-12-17T14:09:59;4.10;;;2.00;;
68938;SDS011;59064;45.294;11.816;2022-12-17T14:12:26;4.00;;;2.10;;
68938;SDS011;59064;45.294;11.816;2022-12-17T14:14:58;6.00;;;2.90;;
68938;SDS011;59064;45.294;11.816;2022-12-17T14:20:15;4.50;;;2.50;;
68938;SDS011;59064;45.294;11.816;2022-12-17T14:22:49;8.70;;;4.60;;
68938;SDS011;59064;45.294;11.816;2022-12-17T14:25:36;8.10;;;4.80;;
68938;SDS011;59064;45.294;11.816;2022-12-17T14:28:05;7.60;;;4.70;;
68938;SDS011;59064;45.294;11.816;2022-12-17T14:30:44;8.00;;;5.10;;
68938;SDS011;59064;45.294;11.816;2022-12-17T14:35:56;6.70;;;4.50;;
68938;SDS011;59064;45.294;11.816;2022-12-17T14:38:24;6.60;;;5.00;;
68938;SDS011;59064;45.294;11.816;2022-12-17T14:40:50;6.20;;;4.30;;
68938;SDS011;59064;45.294;11.816;2022-12-17T14:43:19;5.30;;;3.70;;
68938;SDS011;59064;45.294;11.816;2022-12-17T14:45:56;7.70;;;5.00;;
68938;SDS011;59064;45.294;11.816;2022-12-17T14:48:42;6.60;;;4.60;;
68938;SDS011;59064;45.294;11.816;2022-12-17T14:51:34;7.30;;;4.50;;
68938;SDS011;59064;45.294;11.816;2022-12-17T14:56:50;6.70;;;4.50;;
68938;SDS011;59064;45.294;11.816;2022-12-17T14:59:22;5.60;;;3.20;;
68938;SDS011;59064;45.294;11.816;2022-12-17T15:02:23;5.40;;;3.30;;
68938;SDS011;59064;45.294;11.816;2022-12-17T15:04:52;9.10;;;6.20;;
68938;SDS011;59064;45.294;11.816;2022-12-17T15:07:25;7.60;;;4.90;;
68938;SDS011;59064;45.294;11.816;2022-12-17T15:09:52;6.20;;;4.00;;
68938;SDS011;59064;45.294;11.816;2022-12-17T15:12:19;6.60;;;3.70;;
68938;SDS011;59064;45.294;11.816;2022-12-17T15:14:45;7.20;;;4.00;;
68938;SDS011;59064;45.294;11.816;2022-12-17T15:17:11;7.40;;;4.20;;
68938;SDS011;59064;45.294;11.816;2022-12-17T15:19:37;6.50;;;4.10;;
68938;SDS011;59064;45.294;11.816;2022-12-17T15:22:02;5.70;;;3.20;;
68938;SDS011;59064;45.294;11.816;2022-12-17T15:24:29;5.00;;;2.80;;
68938;SDS011;59064;45.294;11.816;2022-12-17T15:26:55;6.30;;;3.50;;
68938;SDS011;59064;45.294;11.816;2022-12-17T15:29:20;4.90;;;2.90;;
68938;SDS011;59064;45.294;11.816;2022-12-17T15:31:48;5.80;;;3.20;;
68938;SDS011;59064;45.294;11.816;2022-12-17T15:34:14;4.60;;;3.10;;
68938;SDS011;59064;45.294;11.816;2022-12-17T15:36:39;7.10;;;5.60;;
68938;SDS011;59064;45.294;11.816;2022-12-17T15:39:05;11.30;;;8.10;;
68938;SDS011;59064;45.294;11.816;2022-12-17T15:41:31;18.20;;;13.90;;
68938;SDS011;59064;45.294;11.816;2022-12-17T15:44:15;8.40;;;5.90;;
68938;SDS011;59064;45.294;11.816;2022-12-17T15:46:41;6.60;;;4.70;;
68938;SDS011;59064;45.294;11.816;2022-12-17T15:49:06;11.40;;;6.30;;
68938;SDS011;59064;45.294;11.816;2022-12-17T15:51:32;16.20;;;7.30;;
68938;SDS011;59064;45.294;11.816;2022-12-17T15:53:57;14.60;;;7.70;;
68938;SDS011;59064;45.294;11.816;2022-12-17T15:56:24;24.20;;;15.40;;
68938;SDS011;59064;45.294;11.816;2022-12-17T15:58:51;72.40;;;36.50;;
68938;SDS011;59064;45.294;11.816;2022-12-17T16:01:20;100.30;;;56.50;;
68938;SDS011;59064;45.294;11.816;2022-12-17T16:03:45;29.60;;;17.80;;
68938;SDS011;59064;45.294;11.816;2022-12-17T16:06:11;21.90;;;11.80;;
68938;SDS011;59064;45.294;11.816;2022-12-17T16:08:37;19.60;;;11.10;;
68938;SDS011;59064;45.294;11.816;2022-12-17T16:11:10;52.30;;;31.20;;
68938;SDS011;59064;45.294;11.816;2022-12-17T16:13:37;22.80;;;12.10;;
68938;SDS011;59064;45.294;11.816;2022-12-17T16:16:04;9.80;;;5.30;;
68938;SDS011;59064;45.294;11.816;2022-12-17T16:18:31;13.90;;;8.50;;
68938;SDS011;59064;45.294;11.816;2022-12-17T16:21:01;12.30;;;7.30;;
68938;SDS011;59064;45.294;11.816;2022-12-17T16:23:28;12.20;;;6.70;;
68938;SDS011;59064;45.294;11.816;2022-12-17T16:25:57;13.50;;;6.90;;
68938;SDS011;59064;45.294;11.816;2022-12-17T16:28:24;12.00;;;6.40;;
68938;SDS011;59064;45.294;11.816;2022-12-17T16:31:00;14.50;;;7.00;;
68938;SDS011;59064;45.294;11.816;2022-12-17T16:33:32;11.80;;;6.40;;
68938;SDS011;59064;45.294;11.816;2022-12-17T16:36:03;11.60;;;6.50;;
68938;SDS011;59064;45.294;11.816;2022-12-17T16:38:30;8.80;;;4.40;;
68938;SDS011;59064;45.294;11.816;2022-12-17T16:40:57;8.00;;;4.60;;
68938;SDS011;59064;45.294;11.816;2022-12-17T16:43:24;4.60;;;2.40;;
68938;SDS011;59064;45.294;11.816;2022-12-17T16:45:52;6.10;;;3.30;;
68938;SDS011;59064;45.294;11.816;2022-12-17T16:48:19;4.60;;;2.30;;
68938;SDS011;59064;45.294;11.816;2022-12-17T16:50:46;4.00;;;2.30;;
68938;SDS011;59064;45.294;11.816;2022-12-17T16:53:14;6.40;;;3.60;;
68938;SDS011;59064;45.294;11.816;2022-12-17T16:55:42;12.30;;;3.50;;
68938;SDS011;59064;45.294;11.816;2022-12-17T16:58:16;11.50;;;6.10;;
68938;SDS011;59064;45.294;11.816;2022-12-17T17:00:42;10.80;;;5.40;;
68938;SDS011;59064;45.294;11.816;2022-12-17T17:03:09;7.30;;;3.90;;
68938;SDS011;59064;45.294;11.816;2022-12-17T17:05:36;9.30;;;4.90;;
68938;SDS011;59064;45.294;11.816;2022-12-17T17:08:03;7.20;;;3.50;;
68938;SDS011;59064;45.294;11.816;2022-12-17T17:10:34;5.70;;;3.60;;
68938;SDS011;59064;45.294;11.816;2022-12-17T17:13:02;7.00;;;3.30;;
68938;SDS011;59064;45.294;11.816;2022-12-17T17:15:28;7.10;;;3.70;;